Time;durP1;ratioP1;P1;durP2;ratioP2;P2;SDS_P1;SDS_P2;PMS_P1;PMS_P2;Temp;Humidity;BMP_temperature;BMP_pressure;BME280_temperature;BME280_humidity;BME280_pressure;Samples;Min_cycle;Max_cycle;Signal;HPM_P1;HPM_P2
2021/03/25 00:01:21;;;;;;;10.73;7.47;;;4.70;99.90;;;;;;5091439;28;20208;-60
2021/03/25 00:03:51;;;;;;;10.13;7.83;;;4.60;99.90;;;;;;5091561;28;20204;-59
2021/03/25 00:06:19;;;;;;;13.23;7.90;;;4.60;99.90;;;;;;5091512;28;20196;-60
2021/03/25 00:08:45;;;;;;;9.10;6.53;;;4.60;99.90;;;;;;5091658;28;20700;-60
2021/03/25 00:11:12;;;;;;;11.53;6.97;;;4.60;99.90;;;;;;5091723;28;20215;-60
2021/03/25 00:13:38;;;;;;;12.73;7.60;;;4.60;99.90;;;;;;5091622;28;20211;-60
2021/03/25 00:16:05;;;;;;;10.83;7.17;;;4.60;99.90;;;;;;5091478;28;20219;-60
2021/03/25 00:18:31;;;;;;;10.70;7.27;;;4.60;99.90;;;;;;5091151;28;20703;-60
2021/03/25 00:20:58;;;;;;;9.73;7.23;;;4.60;99.90;;;;;;5091619;28;20208;-60
2021/03/25 00:23:25;;;;;;;12.77;7.73;;;4.70;99.90;;;;;;5091417;28;20212;-60
2021/03/25 00:25:51;;;;;;;9.40;6.93;;;4.70;99.90;;;;;;5091802;28;20579;-60
2021/03/25 00:28:18;;;;;;;10.00;7.60;;;4.70;99.90;;;;;;5091133;28;20224;-60
2021/03/25 00:30:45;;;;;;;11.17;7.03;;;4.70;99.90;;;;;;5091227;28;20247;-59
2021/03/25 00:33:14;;;;;;;13.93;7.37;;;4.70;99.90;;;;;;5091959;28;20200;-60
2021/03/25 00:35:42;;;;;;;8.67;6.60;;;4.70;99.90;;;;;;5091009;28;20203;-60
2021/03/25 00:38:09;;;;;;;12.80;7.37;;;4.80;99.90;;;;;;5090927;28;20224;-60
2021/03/25 00:40:36;;;;;;;10.10;6.87;;;4.70;99.90;;;;;;5091069;28;20208;-60
2021/03/25 00:43:05;;;;;;;11.20;7.17;;;4.70;99.90;;;;;;5090904;28;20212;-60
2021/03/25 00:45:36;;;;;;;11.67;7.53;;;4.60;99.90;;;;;;5091085;28;20212;-60
2021/03/25 00:48:03;;;;;;;13.00;7.80;;;4.60;99.90;;;;;;5090801;28;20286;-59
2021/03/25 00:50:31;;;;;;;12.57;7.07;;;4.60;99.90;;;;;;5091035;28;20204;-60
2021/03/25 00:52:58;;;;;;;10.50;6.83;;;4.60;99.90;;;;;;5090951;28;20649;-60
2021/03/25 00:55:25;;;;;;;11.33;7.23;;;4.60;99.90;;;;;;5090636;28;20618;-60
2021/03/25 00:57:53;;;;;;;11.07;7.20;;;4.60;99.90;;;;;;5090441;28;20235;-60
2021/03/25 01:00:22;;;;;;;11.37;7.10;;;4.60;99.90;;;;;;5090992;28;20215;-60
2021/03/25 01:02:48;;;;;;;11.47;7.53;;;4.50;99.90;;;;;;5091075;28;20208;-60
2021/03/25 01:05:15;;;;;;;10.77;6.83;;;4.60;99.90;;;;;;5090814;28;20253;-60
2021/03/25 01:07:41;;;;;;;10.50;7.13;;;4.60;99.90;;;;;;5094046;28;20200;-61
2021/03/25 01:10:15;;;;;;;10.43;7.27;;;4.60;99.90;;;;;;5094698;28;20220;-60
2021/03/25 01:12:41;;;;;;;14.20;7.47;;;4.60;99.90;;;;;;5095088;28;20215;-60
2021/03/25 01:15:11;;;;;;;13.07;7.10;;;4.60;99.90;;;;;;5094822;28;20675;-60
2021/03/25 01:17:41;;;;;;;12.10;7.33;;;4.60;99.90;;;;;;5094701;28;20227;-60
2021/03/25 01:20:16;;;;;;;11.80;7.10;;;4.50;99.90;;;;;;5095054;28;20228;-62
2021/03/25 01:22:42;;;;;;;9.93;6.93;;;4.30;99.90;;;;;;5094652;28;20558;-60
2021/03/25 01:25:10;;;;;;;12.13;6.97;;;4.20;99.90;;;;;;5094656;28;20212;-60
2021/03/25 01:27:36;;;;;;;8.90;6.50;;;4.10;99.90;;;;;;5094725;28;20204;-60
2021/03/25 01:30:04;;;;;;;10.60;6.57;;;4.00;99.90;;;;;;5094503;28;20236;-60
2021/03/25 01:32:31;;;;;;;11.20;6.63;;;4.10;99.90;;;;;;5094559;28;20200;-61
2021/03/25 01:34:57;;;;;;;10.57;6.90;;;4.20;99.90;;;;;;5094258;28;20222;-60
2021/03/25 01:37:24;;;;;;;9.17;6.90;;;4.10;99.90;;;;;;5094341;28;20228;-60
2021/03/25 01:39:51;;;;;;;11.27;6.47;;;4.10;99.90;;;;;;5094356;28;20224;-61
2021/03/25 01:42:22;;;;;;;10.87;7.30;;;4.10;99.90;;;;;;5094332;28;20200;-61
2021/03/25 01:44:48;;;;;;;9.73;6.50;;;4.10;99.90;;;;;;5094444;28;20209;-60
2021/03/25 01:47:14;;;;;;;8.90;6.77;;;4.00;99.90;;;;;;5094339;28;20200;-61
2021/03/25 01:49:42;;;;;;;9.40;6.80;;;4.10;99.90;;;;;;5093815;28;20720;-60
2021/03/25 01:52:35;;;;;;;10.97;7.43;;;4.10;99.90;;;;;;5094354;28;20208;-61
2021/03/25 01:55:34;;;;;;;11.93;7.90;;;4.00;99.90;;;;;;5093355;28;20208;-61
2021/03/25 01:58:26;;;;;;;10.83;7.50;;;3.90;99.90;;;;;;5093789;28;20281;-60
2021/03/25 02:00:56;;;;;;;10.47;8.00;;;3.90;99.90;;;;;;5094217;28;20208;-59
2021/03/25 02:03:58;;;;;;;9.33;6.80;;;3.90;99.90;;;;;;5094002;28;20204;-60
2021/03/25 02:06:32;;;;;;;11.17;7.20;;;3.90;99.90;;;;;;5093638;28;20269;-59
2021/03/25 02:09:06;;;;;;;11.10;7.47;;;3.90;99.90;;;;;;5093770;28;20232;-60
2021/03/25 02:11:41;;;;;;;13.50;7.73;;;3.90;99.90;;;;;;5093908;28;20269;-60
2021/03/25 02:14:15;;;;;;;11.87;7.73;;;3.90;99.90;;;;;;5093580;28;20215;-60
2021/03/25 02:16:44;;;;;;;11.50;7.33;;;3.90;99.90;;;;;;5093592;28;20230;-59
2021/03/25 02:19:26;;;;;;;11.33;7.50;;;3.90;99.90;;;;;;5092420;28;20603;-60
2021/03/25 02:22:07;;;;;;;11.10;7.57;;;3.90;99.90;;;;;;5093680;28;20208;-58
2021/03/25 02:24:43;;;;;;;12.07;6.80;;;3.90;99.90;;;;;;5093429;28;20204;-60
2021/03/25 02:27:26;;;;;;;9.60;7.37;;;3.90;99.90;;;;;;5093454;28;20262;-59
2021/03/25 02:29:59;;;;;;;11.50;7.13;;;3.90;99.90;;;;;;5093379;28;20228;-58
2021/03/25 02:32:30;;;;;;;11.37;6.93;;;3.80;99.90;;;;;;5093296;28;20686;-59
2021/03/25 02:35:00;;;;;;;10.07;7.23;;;3.90;99.90;;;;;;5093207;28;20621;-59
2021/03/25 02:37:30;;;;;;;12.23;7.83;;;4.00;99.90;;;;;;5093156;28;20223;-59
2021/03/25 02:40:11;;;;;;;13.10;7.37;;;4.10;99.90;;;;;;5093042;28;20228;-60
2021/03/25 02:42:43;;;;;;;11.20;7.07;;;4.20;99.90;;;;;;5093282;28;20204;-59
2021/03/25 02:45:14;;;;;;;11.37;7.40;;;4.20;99.90;;;;;;5093120;28;20211;-58
2021/03/25 02:47:44;;;;;;;10.20;7.23;;;4.20;99.90;;;;;;5093056;28;20201;-59
2021/03/25 02:50:16;;;;;;;10.77;7.40;;;4.10;99.90;;;;;;5116497;22;20228;-60
2021/03/25 02:52:46;;;;;;;12.00;8.33;;;4.10;99.90;;;;;;5093230;28;20707;-61
2021/03/25 02:55:15;;;;;;;13.97;8.43;;;4.20;99.90;;;;;;5093243;28;20212;-63
2021/03/25 02:57:48;;;;;;;12.33;7.50;;;4.20;99.90;;;;;;5092747;28;20297;-61
2021/03/25 03:00:20;;;;;;;12.23;8.47;;;4.20;99.90;;;;;;5092873;28;20225;-62
2021/03/25 03:02:54;;;;;;;11.17;7.20;;;4.20;99.90;;;;;;5092780;28;20204;-61
2021/03/25 03:05:24;;;;;;;10.97;7.77;;;4.20;99.90;;;;;;5092648;28;20690;-61
2021/03/25 03:07:55;;;;;;;9.47;7.27;;;4.20;99.90;;;;;;5092832;28;20204;-60
2021/03/25 03:10:25;;;;;;;9.87;6.87;;;4.10;99.90;;;;;;5092517;28;20645;-62
2021/03/25 03:12:55;;;;;;;11.63;7.73;;;4.10;99.90;;;;;;5092812;28;20609;-60
2021/03/25 03:15:25;;;;;;;22.00;14.47;;;4.20;99.90;;;;;;5092543;28;20899;-60
2021/03/25 03:18:00;;;;;;;20.73;12.97;;;4.20;99.90;;;;;;5092667;28;20273;-62
2021/03/25 03:20:30;;;;;;;12.47;8.57;;;4.20;99.90;;;;;;5092632;28;20710;-60
2021/03/25 03:22:57;;;;;;;11.60;8.90;;;4.20;99.90;;;;;;5092714;28;20240;-59
2021/03/25 03:25:26;;;;;;;14.60;9.00;;;4.20;99.90;;;;;;5092203;28;20201;-60
2021/03/25 03:27:58;;;;;;;16.20;10.97;;;4.20;99.90;;;;;;5092011;28;20213;-59
2021/03/25 03:30:28;;;;;;;17.37;11.07;;;4.20;99.90;;;;;;5092273;28;20703;-60
2021/03/25 03:32:59;;;;;;;13.00;9.90;;;4.10;99.90;;;;;;5092405;28;20208;-61
2021/03/25 03:35:30;;;;;;;11.87;8.10;;;4.10;99.90;;;;;;5092167;28;20227;-60
2021/03/25 03:38:01;;;;;;;12.20;8.43;;;4.00;99.90;;;;;;5092156;28;20224;-61
2021/03/25 03:40:30;;;;;;;15.30;8.40;;;4.00;99.90;;;;;;5092004;28;20234;-61
2021/03/25 03:43:00;;;;;;;13.37;8.10;;;4.10;99.90;;;;;;5092139;28;20204;-61
2021/03/25 03:45:29;;;;;;;10.40;7.00;;;4.10;99.90;;;;;;5092295;28;20208;-60
2021/03/25 03:48:02;;;;;;;11.40;7.60;;;4.00;99.90;;;;;;5092275;28;20196;-60
2021/03/25 03:50:31;;;;;;;12.10;8.20;;;4.00;99.90;;;;;;5091744;28;20236;-61
2021/03/25 03:52:58;;;;;;;15.63;8.80;;;4.00;99.90;;;;;;5092128;28;20216;-60
2021/03/25 03:55:25;;;;;;;14.50;8.57;;;4.00;99.90;;;;;;5091811;28;20250;-60
2021/03/25 03:58:06;;;;;;;11.90;8.63;;;4.00;99.90;;;;;;5091634;28;20227;-60
2021/03/25 04:00:36;;;;;;;12.23;7.77;;;4.00;99.90;;;;;;5091923;28;20232;-60
2021/03/25 04:03:09;;;;;;;14.17;10.23;;;4.00;99.90;;;;;;5091801;28;20215;-60
2021/03/25 04:05:39;;;;;;;14.37;10.10;;;4.00;99.90;;;;;;5091458;28;20691;-61
2021/03/25 04:08:10;;;;;;;10.00;7.27;;;4.10;99.90;;;;;;5091645;28;20276;-61
2021/03/25 04:10:41;;;;;;;10.43;7.63;;;4.00;99.90;;;;;;5091708;28;20694;-61
2021/03/25 04:13:11;;;;;;;16.67;12.63;;;3.90;99.90;;;;;;5091673;28;20212;-60
2021/03/25 04:15:41;;;;;;;12.40;9.77;;;3.90;99.90;;;;;;5091423;28;20207;-60
2021/03/25 04:18:14;;;;;;;11.87;7.27;;;3.80;99.90;;;;;;5091701;28;20259;-61
2021/03/25 04:20:44;;;;;;;11.77;7.87;;;3.80;99.90;;;;;;5091885;28;20204;-61
2021/03/25 04:23:15;;;;;;;9.03;7.60;;;3.80;99.90;;;;;;5091540;28;20204;-61
2021/03/25 04:25:44;;;;;;;12.97;7.50;;;3.80;99.90;;;;;;5091580;28;20663;-61
2021/03/25 04:28:15;;;;;;;11.07;7.40;;;3.80;99.90;;;;;;5091631;28;20204;-60
2021/03/25 04:30:45;;;;;;;11.63;7.87;;;3.80;99.90;;;;;;5091481;28;20212;-60
2021/03/25 04:33:13;;;;;;;13.03;7.83;;;3.80;99.90;;;;;;5091437;28;20288;-61
2021/03/25 04:35:42;;;;;;;9.63;7.33;;;3.80;99.90;;;;;;5091695;28;20675;-60
2021/03/25 04:38:11;;;;;;;11.23;8.60;;;3.80;99.90;;;;;;5091814;28;20729;-60
2021/03/25 04:40:38;;;;;;;16.87;10.93;;;3.80;99.90;;;;;;5091372;28;20208;-60
2021/03/25 04:43:05;;;;;;;14.20;10.07;;;3.70;99.90;;;;;;5091664;28;20205;-60
2021/03/25 04:45:45;;;;;;;14.17;10.63;;;3.80;99.90;;;;;;5091417;28;20203;-60
2021/03/25 04:48:15;;;;;;;11.07;7.93;;;3.80;99.90;;;;;;5091436;28;20220;-62
2021/03/25 04:50:46;;;;;;;12.43;8.70;;;3.70;99.90;;;;;;5091298;28;20212;-60
2021/03/25 04:53:21;;;;;;;10.30;7.93;;;3.70;99.90;;;;;;5091272;28;20591;-60
2021/03/25 04:55:48;;;;;;;13.00;7.80;;;3.70;99.90;;;;;;5091427;28;20679;-60
2021/03/25 04:58:25;;;;;;;11.37;8.17;;;3.70;99.90;;;;;;5091032;28;20242;-60
2021/03/25 05:00:51;;;;;;;12.30;8.17;;;3.70;99.90;;;;;;5091668;28;20227;-60
2021/03/25 05:03:21;;;;;;;13.17;8.13;;;3.80;99.90;;;;;;5091425;28;20628;-60
2021/03/25 05:05:48;;;;;;;10.53;7.77;;;3.80;99.90;;;;;;5091318;28;20208;-61
2021/03/25 05:08:19;;;;;;;13.03;8.00;;;3.80;99.90;;;;;;5091296;28;20208;-60
2021/03/25 05:10:47;;;;;;;13.33;7.13;;;3.80;99.90;;;;;;5091581;28;20204;-60
2021/03/25 05:13:22;;;;;;;13.23;8.63;;;3.70;99.90;;;;;;5091243;28;20622;-61
2021/03/25 05:15:53;;;;;;;11.13;7.93;;;3.80;99.90;;;;;;5091131;28;20220;-60
2021/03/25 05:18:29;;;;;;;11.17;7.87;;;3.70;99.90;;;;;;5091161;28;20586;-60
2021/03/25 05:21:03;;;;;;;11.77;7.57;;;3.70;99.90;;;;;;5091007;28;20253;-61
2021/03/25 05:23:38;;;;;;;12.23;7.43;;;3.70;99.90;;;;;;5090744;28;20215;-60
2021/03/25 05:26:07;;;;;;;11.00;7.67;;;3.70;99.90;;;;;;5090844;28;20207;-59
2021/03/25 05:28:38;;;;;;;9.87;7.57;;;3.70;99.90;;;;;;5090532;28;20655;-60
2021/03/25 05:31:07;;;;;;;15.10;7.77;;;3.70;99.90;;;;;;5090894;28;20259;-60
2021/03/25 05:33:36;;;;;;;10.87;7.63;;;3.70;99.90;;;;;;5090866;28;20262;-60
2021/03/25 05:36:06;;;;;;;9.23;7.23;;;3.70;99.90;;;;;;5090720;28;20212;-60
2021/03/25 05:38:32;;;;;;;12.67;7.63;;;3.80;99.90;;;;;;5090611;28;20224;-61
2021/03/25 05:41:08;;;;;;;9.93;7.63;;;3.80;99.90;;;;;;5090608;28;20216;-60
2021/03/25 05:44:02;;;;;;;10.37;7.87;;;4.00;99.90;;;;;;5090564;28;20211;-61
2021/03/25 05:46:35;;;;;;;13.47;7.43;;;4.10;99.90;;;;;;5090852;28;20204;-61
2021/03/25 05:49:12;;;;;;;11.97;8.33;;;4.20;99.90;;;;;;5090653;28;20656;-59
2021/03/25 05:51:46;;;;;;;12.47;7.90;;;4.30;99.90;;;;;;5091176;28;20211;-59
2021/03/25 05:54:22;;;;;;;13.30;7.53;;;4.60;99.90;;;;;;5093120;28;20220;-61
2021/03/25 05:57:03;;;;;;;10.50;7.40;;;4.60;99.90;;;;;;5094618;28;20220;-61
2021/03/25 05:59:36;;;;;;;11.63;8.77;;;4.80;99.90;;;;;;5094277;28;20227;-59
2021/03/25 06:02:06;;;;;;;12.33;8.00;;;4.90;99.90;;;;;;5094680;28;20295;-60
2021/03/25 06:04:35;;;;;;;12.40;8.10;;;4.90;99.90;;;;;;5094087;28;20688;-61
2021/03/25 06:07:42;;;;;;;12.00;7.90;;;5.00;99.90;;;;;;5094355;28;20254;-61
2021/03/25 06:10:15;;;;;;;17.87;8.37;;;5.00;99.90;;;;;;5094018;28;20737;-60
2021/03/25 06:13:23;;;;;;;13.80;7.67;;;5.10;99.90;;;;;;5094362;28;20664;-60
2021/03/25 06:16:14;;;;;;;16.30;8.00;;;5.40;99.90;;;;;;5094008;28;20493;-61
2021/03/25 06:19:08;;;;;;;15.33;9.20;;;6.00;99.90;;;;;;5093705;28;20242;-60
2021/03/25 06:21:53;;;;;;;16.23;10.33;;;7.10;99.90;;;;;;5093872;28;20220;-60
2021/03/25 06:24:59;;;;;;;48.97;33.27;;;8.30;99.90;;;;;;5093975;28;20207;-61
2021/03/25 06:27:38;;;;;;;16.50;9.17;;;9.60;99.80;;;;;;5094116;28;20211;-62
2021/03/25 06:30:09;;;;;;;10.83;8.20;;;10.90;97.00;;;;;;5093595;28;20224;-61
2021/03/25 06:32:52;;;;;;;10.40;7.47;;;11.70;95.00;;;;;;5093914;28;20201;-62
2021/03/25 06:35:23;;;;;;;10.23;7.30;;;12.60;93.40;;;;;;5093379;28;20204;-62
2021/03/25 06:38:01;;;;;;;9.97;7.23;;;13.20;92.00;;;;;;5093725;28;20268;-64
2021/03/25 06:40:33;;;;;;;9.20;7.00;;;13.80;90.50;;;;;;5093842;28;20224;-62
2021/03/25 06:43:09;;;;;;;10.07;7.73;;;14.10;89.30;;;;;;5093947;28;20215;-64
2021/03/25 06:45:42;;;;;;;9.63;7.60;;;14.50;87.70;;;;;;5093428;28;20207;-63
2021/03/25 06:48:15;;;;;;;13.70;7.53;;;15.00;85.80;;;;;;5093782;28;20664;-64
2021/03/25 06:50:45;;;;;;;9.87;7.40;;;15.60;83.70;;;;;;5094086;28;20204;-64
2021/03/25 06:53:22;;;;;;;13.17;7.13;;;16.20;81.40;;;;;;5093271;28;20200;-64
2021/03/25 06:55:50;;;;;;;11.30;7.17;;;16.90;79.40;;;;;;5092934;28;20676;-64
2021/03/25 06:58:21;;;;;;;10.27;7.33;;;17.40;76.20;;;;;;5092955;28;20220;-64
2021/03/25 07:01:00;;;;;;;10.03;6.90;;;17.80;74.00;;;;;;5093276;28;20295;-64
2021/03/25 07:03:28;;;;;;;10.03;7.33;;;17.80;73.40;;;;;;5093132;28;20748;-63
2021/03/25 07:05:55;;;;;;;10.13;6.70;;;17.80;73.00;;;;;;5092850;28;20200;-63
2021/03/25 07:08:25;;;;;;;13.23;6.80;;;17.70;72.70;;;;;;5092802;28;20236;-65
2021/03/25 07:10:54;;;;;;;8.97;6.40;;;17.70;72.90;;;;;;5093149;28;20219;-65
2021/03/25 07:13:41;;;;;;;7.87;6.60;;;18.10;72.00;;;;;;5093057;28;20208;-64
2021/03/25 07:16:10;;;;;;;9.07;6.07;;;18.60;69.90;;;;;;5092840;28;20205;-63
2021/03/25 07:18:52;;;;;;;7.93;5.97;;;18.60;69.30;;;;;;5092742;28;20228;-64
2021/03/25 07:21:34;;;;;;;11.03;6.70;;;18.60;68.00;;;;;;5093116;28;20349;-63
2021/03/25 07:24:06;;;;;;;7.10;6.33;;;18.60;68.00;;;;;;5092612;28;20265;-64
2021/03/25 07:26:38;;;;;;;8.20;6.67;;;18.60;68.00;;;;;;5093013;28;20205;-65
2021/03/25 07:29:20;;;;;;;8.13;6.67;;;18.70;67.80;;;;;;5092374;28;20224;-65
2021/03/25 07:31:53;;;;;;;7.67;6.30;;;18.50;68.20;;;;;;5089879;28;20208;-64
2021/03/25 07:34:32;;;;;;;8.23;6.40;;;18.50;67.60;;;;;;5093015;28;20199;-64
2021/03/25 07:37:00;;;;;;;9.30;6.83;;;18.30;67.70;;;;;;5093456;28;20297;-65
2021/03/25 07:39:29;;;;;;;10.47;6.70;;;18.00;68.20;;;;;;5092536;28;20231;-63
2021/03/25 07:41:57;;;;;;;10.17;6.57;;;17.80;68.60;;;;;;5091850;28;20204;-63
2021/03/25 07:44:31;;;;;;;9.93;6.17;;;17.60;69.40;;;;;;5091927;28;20208;-65
2021/03/25 07:46:59;;;;;;;9.97;6.40;;;17.40;69.00;;;;;;5091994;28;20740;-64
2021/03/25 07:49:28;;;;;;;8.63;6.03;;;17.20;70.00;;;;;;5091901;28;20322;-66
2021/03/25 07:51:57;;;;;;;7.80;5.90;;;16.80;70.60;;;;;;5091884;28;20821;-66
2021/03/25 07:54:31;;;;;;;7.47;6.20;;;16.70;71.10;;;;;;5091867;28;20212;-65
2021/03/25 07:57:07;;;;;;;11.03;5.90;;;16.90;71.20;;;;;;5091741;28;20263;-66
2021/03/25 07:59:41;;;;;;;10.33;6.63;;;16.60;71.80;;;;;;5090562;28;20232;-64
2021/03/25 08:02:21;;;;;;;10.07;6.77;;;16.60;72.60;;;;;;5091636;28;20694;-65
2021/03/25 08:04:47;;;;;;;10.03;6.20;;;16.60;72.20;;;;;;5091469;28;20667;-64
2021/03/25 08:07:13;;;;;;;7.27;5.33;;;16.20;73.20;;;;;;5091738;28;20200;-65
2021/03/25 08:09:45;;;;;;;10.07;5.90;;;15.70;74.40;;;;;;5091261;28;20228;-63
2021/03/25 08:12:22;;;;;;;9.13;5.30;;;15.20;75.30;;;;;;5091822;28;20266;-65
2021/03/25 08:14:49;;;;;;;7.07;4.90;;;14.70;76.60;;;;;;5091605;28;20200;-64
2021/03/25 08:17:25;;;;;;;8.20;6.33;;;14.30;77.90;;;;;;5089519;28;20321;-61
2021/03/25 08:20:00;;;;;;;7.13;5.30;;;14.00;78.90;;;;;;5091468;28;20257;-58
2021/03/25 08:22:49;;;;;;;8.33;4.97;;;14.00;79.00;;;;;;5091454;28;20690;-61
2021/03/25 08:25:34;;;;;;;7.73;4.47;;;14.20;79.50;;;;;;5078493;28;20223;-65
2021/03/25 08:28:16;;;;;;;6.87;5.30;;;14.20;78.90;;;;;;5091614;28;20290;-64
2021/03/25 08:31:10;;;;;;;6.33;5.00;;;14.30;78.80;;;;;;5091433;28;20215;-64
2021/03/25 08:33:49;;;;;;;6.80;4.73;;;14.50;78.80;;;;;;5090549;28;20627;-63
2021/03/25 08:36:22;;;;;;;6.43;4.80;;;14.60;77.70;;;;;;5091069;28;20693;-63
2021/03/25 08:39:06;;;;;;;8.97;5.40;;;14.80;77.10;;;;;;5091070;28;20232;-63
2021/03/25 08:41:39;;;;;;;8.00;5.40;;;14.90;76.20;;;;;;5091176;28;20212;-63
2021/03/25 08:44:10;;;;;;;7.70;5.37;;;14.90;76.60;;;;;;5091042;28;20201;-64
2021/03/25 08:46:43;;;;;;;10.63;5.20;;;15.10;76.30;;;;;;5090920;28;20208;-63
2021/03/25 08:49:17;;;;;;;8.33;5.17;;;15.30;75.30;;;;;;5091580;28;20239;-64
2021/03/25 08:51:45;;;;;;;6.87;5.50;;;15.30;75.30;;;;;;5091162;28;20227;-65
2021/03/25 08:54:18;;;;;;;6.27;4.50;;;15.30;75.20;;;;;;5091098;28;20474;-63
2021/03/25 08:56:47;;;;;;;7.93;5.03;;;15.50;74.70;;;;;;5090834;28;20204;-63
2021/03/25 08:59:22;;;;;;;7.67;5.10;;;15.60;74.40;;;;;;5091174;28;20238;-63
2021/03/25 09:01:54;;;;;;;6.27;4.33;;;15.80;74.10;;;;;;5091056;28;20214;-64
2021/03/25 09:04:22;;;;;;;7.57;4.87;;;15.80;73.20;;;;;;5091351;28;20208;-64
2021/03/25 09:06:51;;;;;;;6.20;5.00;;;15.90;72.30;;;;;;5091524;28;20204;-63
2021/03/25 09:09:34;;;;;;;7.13;4.40;;;16.00;71.90;;;;;;5091729;28;20706;-64
2021/03/25 09:12:08;;;;;;;6.67;4.00;;;16.20;70.90;;;;;;5092233;28;20212;-64
2021/03/25 09:14:35;;;;;;;7.80;5.37;;;16.30;70.90;;;;;;5091452;28;20207;-63
2021/03/25 09:17:04;;;;;;;8.83;4.23;;;16.50;70.00;;;;;;5091883;28;20215;-64
2021/03/25 09:19:37;;;;;;;5.87;4.37;;;16.60;70.00;;;;;;5091279;28;20230;-64
2021/03/25 09:22:03;;;;;;;8.27;4.60;;;16.80;68.80;;;;;;5090632;28;20204;-64
2021/03/25 09:24:30;;;;;;;9.13;4.30;;;16.70;68.60;;;;;;5090547;28;20729;-64
2021/03/25 09:27:06;;;;;;;5.67;3.47;;;16.80;68.70;;;;;;5091033;28;20273;-64
2021/03/25 09:29:54;;;;;;;8.30;4.10;;;16.90;67.20;;;;;;5094385;28;20224;-63
2021/03/25 09:32:43;;;;;;;7.83;3.93;;;17.10;66.50;;;;;;5094435;28;20591;-64
2021/03/25 09:35:44;;;;;;;6.27;3.80;;;17.40;66.60;;;;;;5094937;28;20204;-64
2021/03/25 09:38:23;;;;;;;8.33;4.40;;;17.70;65.30;;;;;;5040457;28;20224;-64
2021/03/25 09:40:51;;;;;;;6.30;4.30;;;17.90;65.10;;;;;;5094535;28;20238;-65
2021/03/25 09:43:30;;;;;;;6.83;4.47;;;18.10;64.90;;;;;;5094550;28;20200;-64
2021/03/25 09:46:17;;;;;;;5.97;3.87;;;18.20;63.90;;;;;;5094594;28;20212;-65
2021/03/25 09:48:44;;;;;;;8.43;4.00;;;18.30;63.30;;;;;;5094387;28;20281;-64
2021/03/25 09:51:19;;;;;;;6.07;3.90;;;18.00;63.80;;;;;;5094624;28;20688;-64
2021/03/25 09:53:48;;;;;;;5.67;4.13;;;18.10;61.60;;;;;;5094520;28;20228;-65
2021/03/25 09:56:33;;;;;;;5.38;3.78;;;17.90;62.70;;;;;;5094266;28;20200;-65
2021/03/25 09:59:00;;;;;;;7.30;4.60;;;18.00;62.80;;;;;;5093873;28;20251;-65
2021/03/25 10:01:51;;;;;;;5.50;3.63;;;18.10;63.20;;;;;;5094220;28;20215;-64
2021/03/25 10:04:32;;;;;;;4.13;3.43;;;18.10;61.30;;;;;;5094240;28;20206;-65
2021/03/25 10:07:14;;;;;;;6.50;4.40;;;18.20;60.70;;;;;;5094129;28;20239;-65
2021/03/25 10:10:05;;;;;;;5.50;3.90;;;18.30;61.60;;;;;;5072602;28;20223;-65
2021/03/25 10:13:14;;;;;;;7.57;4.20;;;18.40;61.70;;;;;;5093848;28;20211;-64
2021/03/25 10:15:56;;;;;;;8.50;4.40;;;18.50;61.50;;;;;;5093616;28;20589;-64
2021/03/25 10:18:48;;;;;;;7.67;4.37;;;18.60;62.10;;;;;;5093421;28;20599;-64
2021/03/25 10:21:17;;;;;;;7.27;3.97;;;18.70;62.20;;;;;;5093954;28;20215;-65
2021/03/25 10:23:55;;;;;;;8.20;4.80;;;18.70;62.80;;;;;;5093802;28;20204;-64
2021/03/25 10:26:29;;;;;;;6.97;3.90;;;18.70;62.30;;;;;;5093542;28;20215;-64
2021/03/25 10:29:03;;;;;;;6.90;4.40;;;18.90;62.10;;;;;;5093544;28;20605;-64
2021/03/25 10:31:39;;;;;;;5.70;4.20;;;19.00;62.50;;;;;;5093829;28;20208;-64
2021/03/25 10:34:11;;;;;;;7.07;4.45;;;19.00;61.70;;;;;;5093582;28;20207;-65
2021/03/25 10:36:41;;;;;;;7.30;4.72;;;18.90;62.20;;;;;;5093714;28;20207;-65
2021/03/25 10:39:18;;;;;;;6.57;4.40;;;18.80;62.30;;;;;;5092408;28;20675;-65
2021/03/25 10:41:44;;;;;;;7.43;4.70;;;18.70;62.20;;;;;;5093738;28;20204;-65
2021/03/25 10:44:28;;;;;;;8.30;5.63;;;18.70;62.10;;;;;;5093226;28;20208;-63
2021/03/25 10:46:59;;;;;;;9.27;5.20;;;18.40;62.10;;;;;;5093351;28;20212;-68
2021/03/25 10:49:28;;;;;;;8.03;5.60;;;18.40;63.30;;;;;;5093166;28;20255;-66
2021/03/25 10:51:55;;;;;;;8.70;5.23;;;18.30;62.90;;;;;;5093284;28;20200;-66
2021/03/25 10:54:30;;;;;;;9.73;6.33;;;18.30;63.10;;;;;;5093132;28;20216;-66
2021/03/25 10:57:01;;;;;;;9.60;6.40;;;18.40;62.80;;;;;;5093078;28;20636;-67
2021/03/25 10:59:29;;;;;;;9.38;6.40;;;18.50;62.70;;;;;;5092718;28;20220;-67
2021/03/25 11:01:58;;;;;;;13.32;6.45;;;18.70;62.80;;;;;;5093006;28;20244;-67
2021/03/25 11:04:26;;;;;;;8.65;6.18;;;18.90;62.60;;;;;;5093101;28;20434;-67
2021/03/25 11:06:54;;;;;;;9.45;6.32;;;19.00;61.30;;;;;;5093036;28;20204;-66
2021/03/25 11:09:23;;;;;;;12.45;7.00;;;19.00;61.40;;;;;;5092602;28;20224;-67
2021/03/25 11:11:53;;;;;;;13.80;7.60;;;19.10;61.80;;;;;;5092781;28;20209;-66
2021/03/25 11:14:26;;;;;;;14.73;7.30;;;19.10;61.80;;;;;;5092344;28;20218;-66
2021/03/25 11:16:54;;;;;;;12.13;7.03;;;19.20;60.40;;;;;;5092711;28;20204;-66
2021/03/25 11:19:24;;;;;;;16.25;8.23;;;19.20;60.50;;;;;;5092520;28;20231;-66
2021/03/25 11:21:51;;;;;;;11.40;6.90;;;19.20;60.70;;;;;;5092499;28;20212;-66
2021/03/25 11:24:22;;;;;;;14.20;7.00;;;19.30;59.80;;;;;;5092457;28;20200;-66
2021/03/25 11:26:54;;;;;;;10.70;6.40;;;19.40;60.10;;;;;;5092483;28;20200;-66
2021/03/25 11:29:21;;;;;;;16.95;7.75;;;19.50;58.70;;;;;;5092502;28;20228;-66
2021/03/25 11:31:48;;;;;;;12.20;6.90;;;19.60;59.20;;;;;;5092170;28;20211;-66
2021/03/25 11:34:25;;;;;;;8.88;5.78;;;19.60;59.30;;;;;;5092517;28;20208;-68
2021/03/25 11:36:51;;;;;;;12.70;6.95;;;19.60;59.20;;;;;;5093075;28;20204;-66
2021/03/25 11:39:24;;;;;;;12.73;7.60;;;19.70;59.40;;;;;;5092961;28;20232;-66
2021/03/25 11:41:53;;;;;;;9.65;6.30;;;19.70;59.00;;;;;;5092586;28;20652;-67
2021/03/25 11:44:36;;;;;;;10.63;6.60;;;19.70;59.60;;;;;;5092843;28;20211;-66
2021/03/25 11:47:37;;;;;;;10.68;6.25;;;19.50;60.20;;;;;;5092643;28;20393;-67
2021/03/25 11:50:10;;;;;;;10.95;7.28;;;19.40;60.10;;;;;;5092055;28;20235;-66
2021/03/25 11:52:45;;;;;;;10.98;6.82;;;19.30;60.20;;;;;;5092080;28;20265;-68
2021/03/25 11:55:21;;;;;;;14.40;6.88;;;19.40;60.70;;;;;;5092222;28;20208;-68
2021/03/25 11:57:48;;;;;;;14.18;6.53;;;19.50;59.80;;;;;;5091784;28;20238;-67
2021/03/25 12:00:16;;;;;;;11.02;6.28;;;19.60;60.00;;;;;;5092339;28;20235;-65
2021/03/25 12:02:43;;;;;;;11.20;7.32;;;19.70;60.20;;;;;;5092020;28;20215;-67
2021/03/25 12:05:40;;;;;;;13.27;7.38;;;19.90;59.60;;;;;;5091791;28;20554;-66
2021/03/25 12:08:22;;;;;;;11.85;6.72;;;20.30;59.50;;;;;;5091749;28;20690;-67
2021/03/25 12:11:01;;;;;;;11.13;6.95;;;20.60;57.50;;;;;;5092134;28;20250;-66
2021/03/25 12:13:27;;;;;;;10.82;7.18;;;20.90;56.80;;;;;;5091870;28;20208;-66
2021/03/25 12:15:54;;;;;;;13.73;7.32;;;20.90;57.20;;;;;;5091840;28;20215;-67
2021/03/25 12:18:23;;;;;;;13.02;7.00;;;20.70;57.50;;;;;;5091629;28;20228;-65
2021/03/25 12:20:51;;;;;;;13.13;7.18;;;20.70;57.40;;;;;;5091794;28;20200;-67
2021/03/25 12:23:19;;;;;;;12.48;7.30;;;20.80;57.30;;;;;;5091909;28;20203;-67
2021/03/25 12:25:47;;;;;;;12.15;6.60;;;20.80;56.80;;;;;;5091444;28;20209;-67
2021/03/25 12:28:14;;;;;;;9.48;6.38;;;20.90;56.40;;;;;;5091486;28;20211;-66
2021/03/25 12:30:41;;;;;;;15.07;6.70;;;21.10;56.10;;;;;;5091038;28;20235;-65
2021/03/25 12:33:07;;;;;;;13.40;7.55;;;21.30;56.00;;;;;;5089518;28;20208;-65
2021/03/25 12:35:34;;;;;;;12.02;6.97;;;21.40;55.80;;;;;;5090814;28;20207;-62
2021/03/25 12:38:01;;;;;;;12.55;7.13;;;21.40;55.80;;;;;;5091053;28;20224;-66
2021/03/25 12:40:28;;;;;;;11.52;6.22;;;21.40;55.90;;;;;;5091110;28;20224;-66
2021/03/25 12:42:56;;;;;;;10.43;6.80;;;21.40;55.20;;;;;;5091520;28;20208;-67
2021/03/25 12:45:29;;;;;;;10.52;6.85;;;21.50;54.50;;;;;;5091146;28;20204;-67
2021/03/25 12:47:56;;;;;;;11.68;6.47;;;21.50;55.00;;;;;;5090835;28;20568;-66
2021/03/25 12:50:23;;;;;;;10.38;6.72;;;21.30;55.50;;;;;;5090740;28;20267;-61
2021/03/25 12:52:49;;;;;;;11.80;6.55;;;21.40;55.30;;;;;;5091240;28;20200;-64
2021/03/25 12:55:17;;;;;;;8.57;6.63;;;21.30;55.60;;;;;;5090984;28;20204;-62
2021/03/25 12:57:43;;;;;;;12.55;6.75;;;21.10;56.30;;;;;;5091331;28;20224;-66
2021/03/25 13:00:14;;;;;;;10.40;6.15;;;21.10;55.90;;;;;;5090971;28;20224;-61
2021/03/25 13:02:42;;;;;;;11.95;6.82;;;21.20;56.10;;;;;;5092272;28;20258;-64
2021/03/25 13:05:10;;;;;;;9.88;6.70;;;21.50;56.20;;;;;;5095518;28;20337;-65
2021/03/25 13:07:36;;;;;;;11.13;6.65;;;21.60;55.90;;;;;;5095045;28;20200;-65
2021/03/25 13:10:03;;;;;;;16.05;7.22;;;21.70;55.70;;;;;;5094719;28;20740;-65
2021/03/25 13:12:30;;;;;;;10.07;6.28;;;21.80;55.40;;;;;;5094921;28;20837;-65
2021/03/25 13:14:56;;;;;;;11.93;7.28;;;21.80;54.70;;;;;;5094995;28;20204;-66